createdAt,value
2018-12-07T00:02:34.600Z,198.00
2018-12-07T00:05:15.406Z,198.33
2018-12-07T00:07:56.259Z,204.17
2018-12-07T00:10:37.030Z,197.53
2018-12-07T00:13:18.108Z,200.70
2018-12-07T00:15:58.806Z,204.60
2018-12-07T00:18:39.704Z,207.70
2018-12-07T00:21:20.667Z,207.47
2018-12-07T00:24:01.959Z,215.20
2018-12-07T00:26:42.671Z,203.20
2018-12-07T00:29:23.545Z,209.23
2018-12-07T00:32:04.503Z,205.20
2018-12-07T00:34:45.190Z,200.83
2018-12-07T00:37:26.111Z,206.00
2018-12-07T00:40:06.827Z,200.23
2018-12-07T00:42:47.705Z,200.10
2018-12-07T00:45:28.586Z,202.07
2018-12-07T00:48:09.632Z,202.10
2018-12-07T00:50:50.670Z,200.97
2018-12-07T00:53:31.588Z,199.43
2018-12-07T00:56:12.509Z,210.30
2018-12-07T00:58:53.334Z,194.30
2018-12-07T01:01:34.523Z,198.83
2018-12-07T01:04:15.386Z,198.37
2018-12-07T01:06:56.058Z,191.97
2018-12-07T01:09:37.041Z,206.70
2018-12-07T01:12:17.704Z,208.67
2018-12-07T01:14:58.263Z,206.77
2018-12-07T01:17:39.232Z,200.33
2018-12-07T01:20:19.949Z,200.53
2018-12-07T01:23:01.157Z,204.47
2018-12-07T01:25:42.147Z,195.27
2018-12-07T01:28:23.076Z,212.63
2018-12-07T01:31:03.894Z,247.00
2018-12-07T01:33:44.871Z,228.63
2018-12-07T01:36:25.738Z,212.80
2018-12-07T01:39:06.304Z,248.90
2018-12-07T01:41:47.265Z,261.37
2018-12-07T01:44:28.182Z,249.07
2018-12-07T01:47:09.462Z,235.50
2018-12-07T01:49:50.198Z,229.80
2018-12-07T01:52:30.837Z,228.77
2018-12-07T01:55:11.864Z,247.00
2018-12-07T01:57:53.115Z,243.43
2018-12-07T02:00:34.265Z,262.43
2018-12-07T02:03:15.272Z,278.67
2018-12-07T02:05:55.880Z,278.97
2018-12-07T02:08:36.594Z,280.50
2018-12-07T02:11:17.576Z,255.03
2018-12-07T02:13:58.556Z,259.37
2018-12-07T02:16:40.034Z,256.73
2018-12-07T02:19:20.705Z,253.13
2018-12-07T02:22:01.307Z,270.00
2018-12-07T02:24:42.594Z,263.33
2018-12-07T02:27:23.913Z,251.77
2018-12-07T02:30:04.700Z,280.43
2018-12-07T02:32:45.574Z,289.10
2018-12-07T02:35:26.553Z,277.07
2018-12-07T02:38:07.117Z,275.93
2018-12-07T02:40:47.775Z,276.67
2018-12-07T02:43:29.014Z,341.00
2018-12-07T02:46:09.630Z,334.60
2018-12-07T02:48:50.388Z,340.53
2018-12-07T02:51:30.988Z,335.57
2018-12-07T02:54:11.910Z,343.50
2018-12-07T02:56:53.148Z,329.27
2018-12-07T02:59:34.688Z,348.07
2018-12-07T03:02:15.551Z,328.90
2018-12-07T03:04:56.112Z,329.60
2018-12-07T03:07:37.109Z,340.90
2018-12-07T03:10:17.876Z,348.93
2018-12-07T03:12:58.414Z,388.73
2018-12-07T03:15:39.662Z,394.20
2018-12-07T03:18:20.188Z,418.73
2018-12-07T03:21:00.833Z,421.13
2018-12-07T03:23:41.315Z,382.27
2018-12-07T03:26:22.711Z,446.87
2018-12-07T03:29:03.297Z,385.40
2018-12-07T03:31:43.803Z,485.83
2018-12-07T03:34:28.870Z,400.43
2018-12-07T03:37:13.511Z,361.80
2018-12-07T03:39:54.310Z,357.10
2018-12-07T03:42:35.572Z,356.73
2018-12-07T03:45:16.610Z,376.27
2018-12-07T03:47:57.129Z,334.93
2018-12-07T03:50:37.592Z,332.60
2018-12-07T03:53:17.677Z,334.60
2018-12-07T03:55:58.186Z,357.03
2018-12-07T03:58:51.902Z,330.80
2018-12-07T04:01:39.658Z,339.47
2018-12-07T04:07:20.837Z,330.10
2018-12-07T04:10:01.467Z,327.27
2018-12-07T04:12:42.028Z,324.83
2018-12-07T04:15:22.421Z,336.13
2018-12-07T04:18:02.627Z,332.70
2018-12-07T04:20:43.387Z,332.67
2018-12-07T04:23:23.789Z,330.83
2018-12-07T04:26:04.318Z,333.40
2018-12-07T04:28:44.838Z,324.30
2018-12-07T04:31:25.382Z,303.60
2018-12-07T04:34:06.548Z,302.83
2018-12-07T04:36:47.355Z,247.27
2018-12-07T04:39:27.707Z,213.87
2018-12-07T04:42:08.155Z,223.40
2018-12-07T04:44:48.387Z,187.50
2018-12-07T04:47:28.877Z,188.23
2018-12-07T04:50:13.402Z,170.80
2018-12-07T04:52:55.110Z,189.50
2018-12-07T04:55:35.723Z,208.53
2018-12-07T04:58:16.076Z,195.60
2018-12-07T05:00:56.429Z,209.10
2018-12-07T05:03:37.077Z,194.03
2018-12-07T05:06:17.515Z,189.33
2018-12-07T05:08:58.287Z,183.23
2018-12-07T05:11:38.517Z,171.73
2018-12-07T05:14:18.925Z,158.80
2018-12-07T05:16:58.954Z,161.47
2018-12-07T05:19:38.989Z,153.97
2018-12-07T05:22:19.015Z,152.87
2018-12-07T05:24:59.141Z,153.53
2018-12-07T05:27:39.261Z,156.60
2018-12-07T05:30:19.878Z,151.73
2018-12-07T05:33:00.188Z,420.10
2018-12-07T05:35:40.936Z,154.20
2018-12-07T05:38:21.228Z,147.97
2018-12-07T05:41:01.506Z,150.33
2018-12-07T05:43:42.439Z,154.63
2018-12-07T05:46:22.603Z,151.23
2018-12-07T05:49:03.297Z,152.53
2018-12-07T05:51:43.517Z,150.90
2018-12-07T05:54:23.786Z,145.80
2018-12-07T05:57:04.682Z,155.60
2018-12-07T05:59:44.909Z,153.47
2018-12-07T06:02:25.354Z,136.57
2018-12-07T06:05:06.345Z,143.13
2018-12-07T06:07:47.568Z,148.23
2018-12-07T06:10:27.989Z,148.60
2018-12-07T06:13:09.467Z,146.80
2018-12-07T06:15:50.288Z,148.37
2018-12-07T06:18:31.221Z,148.47
2018-12-07T06:21:12.088Z,147.60
2018-12-07T06:23:52.348Z,152.43
2018-12-07T06:26:32.984Z,138.47
2018-12-07T06:29:13.162Z,140.27
2018-12-07T06:31:53.945Z,146.73
2018-12-07T06:34:34.483Z,145.63
2018-12-07T06:37:14.860Z,140.07
2018-12-07T06:39:57.657Z,149.57
2018-12-07T06:42:38.344Z,215.03
2018-12-07T06:45:18.914Z,147.13
2018-12-07T06:47:59.259Z,138.10
2018-12-07T06:50:39.836Z,144.63
2018-12-07T06:53:20.672Z,159.43
2018-12-07T06:56:01.560Z,177.33
2018-12-07T06:58:42.021Z,166.50
2018-12-07T07:01:22.684Z,170.57
2018-12-07T07:04:02.646Z,176.00
2018-12-07T07:06:42.913Z,182.13
2018-12-07T07:09:23.338Z,186.50
2018-12-07T07:12:03.506Z,214.63
2018-12-07T07:14:43.976Z,173.33
2018-12-07T07:17:24.548Z,168.57
2018-12-07T07:20:05.033Z,160.77
2018-12-07T07:22:45.656Z,157.87
2018-12-07T07:25:26.311Z,161.87
2018-12-07T07:28:06.628Z,161.20
2018-12-07T07:30:47.151Z,232.87
2018-12-07T07:33:28.042Z,153.47
2018-12-07T07:36:09.326Z,163.30
2018-12-07T07:38:50.393Z,164.60
2018-12-07T07:41:31.728Z,167.37
2018-12-07T07:44:12.559Z,158.63
2018-12-07T07:46:53.521Z,175.43
2018-12-07T07:49:34.263Z,163.43
2018-12-07T07:52:15.035Z,171.87
2018-12-07T07:54:55.843Z,170.13
2018-12-07T07:57:36.840Z,169.87
2018-12-07T08:00:18.267Z,169.60
2018-12-07T08:03:00.011Z,163.47
2018-12-07T08:05:40.237Z,158.93
2018-12-07T08:08:21.044Z,152.90
2018-12-07T08:11:02.423Z,155.57
2018-12-07T08:13:42.627Z,152.33
2018-12-07T08:16:23.547Z,153.23
2018-12-07T08:19:04.175Z,149.90
2018-12-07T08:21:45.012Z,145.70
2018-12-07T08:24:25.640Z,144.13
2018-12-07T08:27:15.033Z,254.40
2018-12-07T08:30:04.390Z,183.87
2018-12-07T08:32:46.147Z,178.13
2018-12-07T08:35:26.064Z,166.53
2018-12-07T08:38:07.077Z,182.47
2018-12-07T08:40:51.359Z,178.20
2018-12-07T08:43:37.872Z,151.23
2018-12-07T08:46:19.717Z,153.80
2018-12-07T08:48:59.866Z,153.40
2018-12-07T08:51:40.505Z,143.47
2018-12-07T08:54:20.980Z,140.00
2018-12-07T08:57:01.886Z,136.57
2018-12-07T08:59:42.799Z,152.63
2018-12-07T09:02:23.094Z,145.03
2018-12-07T09:05:04.030Z,137.13
2018-12-07T09:07:44.997Z,135.40
2018-12-07T09:10:25.233Z,134.30
2018-12-07T09:13:05.954Z,129.63
2018-12-07T09:15:47.547Z,130.37
2018-12-07T09:18:28.110Z,126.70
2018-12-07T09:21:08.012Z,126.37
2018-12-07T09:23:49.640Z,126.93
2018-12-07T09:26:30.539Z,128.43
2018-12-07T09:29:10.522Z,124.83
2018-12-07T09:31:51.478Z,130.13
2018-12-07T09:34:32.118Z,128.07
2018-12-07T09:37:12.785Z,141.83
2018-12-07T09:39:53.666Z,131.03
2018-12-07T09:42:34.588Z,130.97
2018-12-07T09:45:15.307Z,124.60
2018-12-07T09:47:56.265Z,122.43
2018-12-07T09:50:37.064Z,125.80
2018-12-07T09:53:17.961Z,123.57
2018-12-07T09:55:59.383Z,124.53
2018-12-07T09:58:40.080Z,123.23
2018-12-07T10:01:21.366Z,125.63
2018-12-07T10:04:02.110Z,127.43
2018-12-07T10:06:43.190Z,126.83
2018-12-07T10:09:23.978Z,126.87
2018-12-07T10:12:04.661Z,120.37
2018-12-07T10:14:45.467Z,121.83
2018-12-07T10:17:25.673Z,128.07
2018-12-07T10:20:06.525Z,125.67
2018-12-07T10:22:47.325Z,123.53
2018-12-07T10:25:28.118Z,123.30
2018-12-07T10:28:08.318Z,125.60
2018-12-07T10:30:49.305Z,127.27
2018-12-07T10:33:29.989Z,125.37
2018-12-07T10:36:10.618Z,128.10
2018-12-07T10:38:51.564Z,129.07
2018-12-07T10:41:32.789Z,132.27
2018-12-07T10:44:13.819Z,131.83
2018-12-07T10:46:54.265Z,132.37
2018-12-07T10:49:34.753Z,129.03
2018-12-07T10:52:15.707Z,128.80
2018-12-07T10:54:56.553Z,129.10
2018-12-07T10:57:36.972Z,136.70
2018-12-07T11:00:22.764Z,134.50
2018-12-07T11:02:59.341Z,139.77
2018-12-07T11:05:40.221Z,142.20
2018-12-07T11:08:21.149Z,153.80
2018-12-07T11:11:02.174Z,137.73
2018-12-07T11:13:42.236Z,142.37
2018-12-07T11:16:23.051Z,139.13
2018-12-07T11:19:03.745Z,145.10
2018-12-07T11:21:43.996Z,148.83
2018-12-07T11:24:24.468Z,146.93
2018-12-07T11:27:05.342Z,150.43
2018-12-07T11:29:46.314Z,145.10
2018-12-07T11:32:26.800Z,161.43
2018-12-07T11:35:06.903Z,150.00
2018-12-07T11:37:47.590Z,145.37
2018-12-07T11:40:28.716Z,146.70
2018-12-07T11:43:09.713Z,145.23
2018-12-07T11:45:50.310Z,159.17
2018-12-07T11:48:31.393Z,143.13
2018-12-07T11:51:13.313Z,148.53
2018-12-07T11:53:53.193Z,147.23
2018-12-07T11:56:33.815Z,147.57
2018-12-07T11:59:14.683Z,147.63
2018-12-07T12:01:55.563Z,160.67
2018-12-07T12:04:36.307Z,205.10
2018-12-07T12:07:16.996Z,166.17
2018-12-07T12:09:57.860Z,169.43
2018-12-07T12:12:41.073Z,165.07
2018-12-07T12:15:22.463Z,169.10
2018-12-07T12:18:02.595Z,157.77
2018-12-07T12:20:42.732Z,156.27
2018-12-07T12:23:23.342Z,167.13
2018-12-07T12:26:04.198Z,162.23
2018-12-07T12:28:44.610Z,155.63
2018-12-07T12:31:24.819Z,157.43
2018-12-07T12:34:05.262Z,150.97
2018-12-07T12:36:45.946Z,156.27
2018-12-07T12:39:26.273Z,160.23
2018-12-07T12:42:06.755Z,161.13
2018-12-07T12:44:47.749Z,159.10
2018-12-07T12:47:28.324Z,163.07
2018-12-07T12:50:11.714Z,168.37
2018-12-07T12:52:51.825Z,168.70
2018-12-07T12:55:32.597Z,254.77
2018-12-07T12:58:13.140Z,271.87
2018-12-07T13:00:53.603Z,276.00
2018-12-07T13:03:33.954Z,242.63
2018-12-07T13:06:14.572Z,209.07
2018-12-07T13:08:54.664Z,203.80
2018-12-07T13:11:35.101Z,198.77
2018-12-07T13:14:15.268Z,189.30
2018-12-07T13:16:55.533Z,181.37
2018-12-07T13:19:35.587Z,191.10
2018-12-07T13:22:16.034Z,187.23
2018-12-07T13:24:56.728Z,193.87
2018-12-07T13:27:37.222Z,198.97
2018-12-07T13:30:18.675Z,190.57
2018-12-07T13:32:59.113Z,191.90
2018-12-07T13:35:39.399Z,186.33
2018-12-07T13:38:22.469Z,180.27
2018-12-07T13:41:02.829Z,178.70
2018-12-07T13:43:43.426Z,191.23
2018-12-07T13:46:24.784Z,185.57
2018-12-07T13:49:05.176Z,178.90
2018-12-07T13:51:48.666Z,186.13
2018-12-07T13:54:29.459Z,211.93
2018-12-07T13:57:09.761Z,236.30
2018-12-07T13:59:50.333Z,240.60
2018-12-07T14:02:30.671Z,224.53
2018-12-07T14:05:11.710Z,218.47
2018-12-07T14:07:52.720Z,210.27
2018-12-07T14:10:33.312Z,205.57
2018-12-07T14:13:14.039Z,213.33
2018-12-07T14:15:54.593Z,214.27
2018-12-07T14:18:35.380Z,206.60
2018-12-07T14:21:15.855Z,211.20
2018-12-07T14:23:56.368Z,210.70
2018-12-07T14:26:36.558Z,206.70
2018-12-07T14:29:16.793Z,205.87
2018-12-07T14:31:57.267Z,208.47
2018-12-07T14:34:37.728Z,212.27
2018-12-07T14:37:18.695Z,209.03
2018-12-07T14:39:59.207Z,227.77
2018-12-07T14:42:39.478Z,219.73
2018-12-07T14:45:20.033Z,211.90
2018-12-07T14:48:00.553Z,217.00
2018-12-07T14:50:41.143Z,228.67
2018-12-07T14:53:21.755Z,219.90
2018-12-07T14:56:01.944Z,211.73
2018-12-07T14:58:42.288Z,218.40
2018-12-07T15:01:22.923Z,221.27
2018-12-07T15:04:03.439Z,214.17
2018-12-07T15:06:43.895Z,208.73
2018-12-07T15:09:24.228Z,212.33
2018-12-07T15:12:04.746Z,205.17
2018-12-07T15:14:45.436Z,206.97
2018-12-07T15:17:26.143Z,208.40
2018-12-07T15:20:06.536Z,213.43
2018-12-07T15:22:47.045Z,207.30
2018-12-07T15:25:27.128Z,208.17
2018-12-07T15:28:08.340Z,205.47
2018-12-07T15:30:48.790Z,212.50
2018-12-07T15:33:29.368Z,209.77
2018-12-07T15:36:09.425Z,206.47
2018-12-07T15:38:50.052Z,201.63
2018-12-07T15:41:35.331Z,211.77
2018-12-07T15:44:17.330Z,218.57
2018-12-07T15:46:59.380Z,214.20
2018-12-07T15:49:39.681Z,217.03
2018-12-07T15:52:19.626Z,218.37
2018-12-07T15:55:03.516Z,215.97
2018-12-07T15:57:45.542Z,223.77
2018-12-07T16:00:25.748Z,223.27
2018-12-07T16:03:05.962Z,224.33
2018-12-07T16:05:47.129Z,216.97
2018-12-07T16:08:27.646Z,232.00
2018-12-07T16:11:08.404Z,224.43
2018-12-07T16:13:49.230Z,231.87
2018-12-07T16:16:32.235Z,237.67
2018-12-07T16:19:12.717Z,222.67
2018-12-07T16:21:53.356Z,207.70
2018-12-07T16:24:33.807Z,205.80
2018-12-07T16:27:14.276Z,207.77
2018-12-07T16:29:55.317Z,203.93
2018-12-07T16:32:36.518Z,211.57
2018-12-07T16:35:16.563Z,249.40
2018-12-07T16:37:56.753Z,241.00
2018-12-07T16:40:37.498Z,236.87
2018-12-07T16:43:17.617Z,239.50
2018-12-07T16:45:58.098Z,242.03
2018-12-07T16:48:38.230Z,236.97
2018-12-07T16:51:18.589Z,221.73
2018-12-07T16:53:58.745Z,219.70
2018-12-07T16:56:47.565Z,217.63
2018-12-07T16:59:28.690Z,226.27
2018-12-07T17:02:09.628Z,242.47
2018-12-07T17:04:50.331Z,226.17
2018-12-07T17:07:30.996Z,221.97
2018-12-07T17:10:11.482Z,224.77
2018-12-07T17:12:52.195Z,226.07
2018-12-07T17:15:33.238Z,219.97
2018-12-07T17:18:14.448Z,219.20
2018-12-07T17:27:55.922Z,202.73
2018-12-07T17:30:36.523Z,208.97
2018-12-07T17:33:17.793Z,196.43
2018-12-07T17:35:58.480Z,212.63
2018-12-07T17:38:45.377Z,211.33
2018-12-07T17:41:28.471Z,208.30
2018-12-07T17:44:15.541Z,212.10
2018-12-07T17:46:55.905Z,207.60
2018-12-07T17:49:36.198Z,218.37
2018-12-07T17:52:17.044Z,215.00
2018-12-07T17:54:57.903Z,214.53
2018-12-07T17:57:47.810Z,216.77
2018-12-07T18:06:14.186Z,220.97
2018-12-07T18:08:55.114Z,218.40
2018-12-07T18:11:36.346Z,221.80
2018-12-07T18:14:17.153Z,229.57
2018-12-07T18:16:58.464Z,221.03
2018-12-07T18:19:39.571Z,221.93
2018-12-07T18:22:20.877Z,224.40
2018-12-07T18:25:02.349Z,231.97
2018-12-07T18:27:43.530Z,233.37
2018-12-07T18:30:24.638Z,234.00
2018-12-07T18:33:05.656Z,233.83
2018-12-07T18:35:46.818Z,233.33
2018-12-07T18:38:27.780Z,244.47
2018-12-07T18:41:09.678Z,234.63
2018-12-07T18:43:50.703Z,224.27
2018-12-07T18:46:31.539Z,223.63
2018-12-07T18:49:12.706Z,216.57
2018-12-07T18:51:53.855Z,222.87
2018-12-07T18:54:34.814Z,220.67
2018-12-07T18:57:15.391Z,221.80
2018-12-07T18:59:56.529Z,222.37
2018-12-07T19:02:37.211Z,228.97
2018-12-07T19:05:17.517Z,221.03
2018-12-07T19:07:58.342Z,235.43
2018-12-07T19:10:39.398Z,229.33
2018-12-07T19:13:20.401Z,220.83
2018-12-07T19:16:01.147Z,226.43
2018-12-07T19:18:42.169Z,223.93
2018-12-07T19:21:23.329Z,224.43
2018-12-07T19:24:04.013Z,227.07
2018-12-07T19:26:45.303Z,248.23
2018-12-07T19:29:26.922Z,225.30
2018-12-07T19:32:08.100Z,227.83
2018-12-07T19:34:49.088Z,226.47
2018-12-07T19:37:30.114Z,218.90
2018-12-07T19:45:54.771Z,216.67
2018-12-07T19:48:35.426Z,214.07
2018-12-07T19:51:15.639Z,219.57
2018-12-07T19:53:56.613Z,219.60
2018-12-07T19:56:37.834Z,213.27
2018-12-07T19:59:18.591Z,215.13
2018-12-07T20:02:00.382Z,206.83
2018-12-07T20:04:41.902Z,210.37
2018-12-07T20:07:23.122Z,217.27
2018-12-07T20:10:03.640Z,222.73
2018-12-07T20:12:44.841Z,215.77
2018-12-07T20:15:25.721Z,209.97
2018-12-07T20:18:06.255Z,203.83
2018-12-07T20:20:46.793Z,207.90
2018-12-07T20:23:28.056Z,214.60
2018-12-07T20:26:08.997Z,206.27
2018-12-07T20:28:49.795Z,214.10
2018-12-07T20:31:31.036Z,216.00
2018-12-07T20:34:11.871Z,214.30
2018-12-07T20:36:52.712Z,214.93
2018-12-07T20:39:33.709Z,207.90
2018-12-07T20:42:15.178Z,215.50
2018-12-07T20:44:55.790Z,214.70
2018-12-07T20:47:36.885Z,215.10
2018-12-07T20:50:17.692Z,209.20
2018-12-07T20:52:58.680Z,205.77
2018-12-07T20:55:39.070Z,205.53
2018-12-07T20:58:20.240Z,206.77
2018-12-07T21:01:01.193Z,203.70
2018-12-07T21:03:41.587Z,206.87
2018-12-07T21:06:22.355Z,195.30
2018-12-07T21:09:02.970Z,207.17
2018-12-07T21:11:43.844Z,219.10
2018-12-07T21:14:24.632Z,216.43
2018-12-07T21:17:06.114Z,213.23
2018-12-07T21:19:46.909Z,212.70
2018-12-07T21:22:27.726Z,203.37
2018-12-07T21:25:08.746Z,212.80
2018-12-07T21:27:49.299Z,215.97
2018-12-07T21:30:29.977Z,209.60
2018-12-07T21:33:10.500Z,210.73
2018-12-07T21:35:50.778Z,204.87
2018-12-07T21:38:31.431Z,208.53
2018-12-07T21:41:11.801Z,202.30
2018-12-07T21:43:52.481Z,207.90
2018-12-07T21:46:33.033Z,199.20
2018-12-07T21:49:14.033Z,198.30
2018-12-07T21:51:54.855Z,201.83
2018-12-07T21:54:35.448Z,203.77
2018-12-07T21:57:16.101Z,198.93
2018-12-07T21:59:56.826Z,207.00
2018-12-07T22:02:37.995Z,225.57
2018-12-07T22:05:18.816Z,214.50
2018-12-07T22:07:59.836Z,205.23
2018-12-07T22:10:41.064Z,209.87
2018-12-07T22:13:22.489Z,209.93
2018-12-07T22:16:03.228Z,209.33
2018-12-07T22:18:43.303Z,221.93
2018-12-07T22:21:24.436Z,212.37
2018-12-07T22:24:05.737Z,210.37
2018-12-07T22:26:46.071Z,216.83
2018-12-07T22:29:27.693Z,218.23
2018-12-07T22:32:08.524Z,209.53
2018-12-07T22:34:49.674Z,198.10
2018-12-07T22:37:30.800Z,223.67
2018-12-07T22:40:11.690Z,234.77
2018-12-07T22:42:53.004Z,209.73
2018-12-07T22:45:33.547Z,201.90
2018-12-07T22:48:13.903Z,214.50
2018-12-07T22:50:54.697Z,215.50
2018-12-07T22:53:35.721Z,227.13
2018-12-07T22:56:16.985Z,227.67
2018-12-07T22:58:57.993Z,235.20
2018-12-07T23:01:37.942Z,258.17
2018-12-07T23:04:18.627Z,256.43
2018-12-07T23:06:59.348Z,248.97
2018-12-07T23:09:40.265Z,258.73
2018-12-07T23:12:20.638Z,258.53
2018-12-07T23:15:01.782Z,261.83
2018-12-07T23:17:42.272Z,259.63
2018-12-07T23:20:22.758Z,276.03
2018-12-07T23:23:03.022Z,272.33
2018-12-07T23:25:44.187Z,285.13
2018-12-07T23:28:24.711Z,305.53
2018-12-07T23:31:05.692Z,313.00
2018-12-07T23:33:46.353Z,306.03
2018-12-07T23:36:26.902Z,308.63
2018-12-07T23:39:07.907Z,301.80
2018-12-07T23:41:48.464Z,312.33
2018-12-07T23:44:29.232Z,298.50
2018-12-07T23:47:10.205Z,301.00
2018-12-07T23:49:51.015Z,298.43
2018-12-07T23:52:32.187Z,288.50
2018-12-07T23:55:12.987Z,305.67
2018-12-07T23:57:53.987Z,287.70
